Terminal Aerodrome Forecast
Issued by NWS Sioux Falls, SD

Home | Current Version | Previous Version | Text Only | Print | Product List | Glossary On
Versions: 1 2 3 4 5 6 7 8 9 10 11 12 13 14 15 16 17 18 19 20 21 22 23 24 25 26
301
FTUS43 KFSD 152320
TAFSUX
TAF
KSUX 152320Z 1600/1624 26006KT P6SM SKC
     FM161100 VRB04KT P6SM SKC
      TEMPO 1611/1613 2SM BR SCT002
     FM161500 14006KT P6SM SKC
     FM161800 19010KT P6SM SKC=

USA.gov is the U.S. government's official web portal to all federal, state and local government web resources and services.